sensor_id;sensor_type;location;lat;lon;timestamp;pressure;altitude;pressure_sealevel;temperature;humidity
55858;BME280;41779;52.360;31.026;2023-12-07T00:02:06;1038.9;;;-4.6;59.7
55858;BME280;41779;52.360;31.026;2023-12-07T00:07:00;1038.9;;;-4.6;59.7
55858;BME280;41779;52.360;31.026;2023-12-07T00:12:00;1038.9;;;-4.6;59.8
55858;BME280;41779;52.360;31.026;2023-12-07T00:17:08;1038.8;;;-4.6;59.8
55858;BME280;41779;52.360;31.026;2023-12-07T00:21:50;1038.8;;;-4.7;59.9
55858;BME280;41779;52.360;31.026;2023-12-07T00:26:48;1038.8;;;-4.7;59.9
55858;BME280;41779;52.360;31.026;2023-12-07T00:32:06;1038.8;;;-4.8;59.9
55858;BME280;41779;52.360;31.026;2023-12-07T00:36:24;1038.8;;;-4.8;59.9
55858;BME280;41779;52.360;31.026;2023-12-07T00:42:00;1038.9;;;-4.8;59.8
55858;BME280;41779;52.360;31.026;2023-12-07T00:47:06;1038.8;;;-4.9;59.8
55858;BME280;41779;52.360;31.026;2023-12-07T00:51:48;1038.8;;;-4.9;59.8
55858;BME280;41779;52.360;31.026;2023-12-07T00:57:00;1038.7;;;-4.9;59.7
55858;BME280;41779;52.360;31.026;2023-12-07T01:02:06;1038.7;;;-4.8;59.7
55858;BME280;41779;52.360;31.026;2023-12-07T01:06:42;1038.7;;;-4.8;59.6
55858;BME280;41779;52.360;31.026;2023-12-07T01:12:00;1038.7;;;-4.8;59.7
55858;BME280;41779;52.360;31.026;2023-12-07T01:17:06;1038.7;;;-4.8;59.9
55858;BME280;41779;52.360;31.026;2023-12-07T01:21:48;1038.6;;;-4.8;60.1
55858;BME280;41779;52.360;31.026;2023-12-07T01:27:06;1038.6;;;-4.8;60.2
55858;BME280;41779;52.360;31.026;2023-12-07T01:32:06;1038.6;;;-4.9;60.3
55858;BME280;41779;52.360;31.026;2023-12-07T01:37:00;1038.6;;;-4.9;60.4
55858;BME280;41779;52.360;31.026;2023-12-07T01:41:44;1038.6;;;-4.9;60.5
55858;BME280;41779;52.360;31.026;2023-12-07T01:47:06;1038.6;;;-4.9;60.6
55858;BME280;41779;52.360;31.026;2023-12-07T01:51:42;1038.5;;;-4.9;60.9
55858;BME280;41779;52.360;31.026;2023-12-07T01:56:38;1038.6;;;-4.9;61
55858;BME280;41779;52.360;31.026;2023-12-07T02:01:50;1038.6;;;-4.9;61
55858;BME280;41779;52.360;31.026;2023-12-07T02:06:42;1038.7;;;-4.9;61.2
55858;BME280;41779;52.360;31.026;2023-12-07T02:11:34;1038.7;;;-4.8;61.1
55858;BME280;41779;52.360;31.026;2023-12-07T02:17:09;1038.7;;;-4.8;61.2
55858;BME280;41779;52.360;31.026;2023-12-07T02:21:44;1038.7;;;-4.9;61.3
55858;BME280;41779;52.360;31.026;2023-12-07T02:26:56;1038.7;;;-4.9;61.3
55858;BME280;41779;52.360;31.026;2023-12-07T02:32:06;1038.7;;;-4.8;61.3
55858;BME280;41779;52.360;31.026;2023-12-07T02:36:24;1038.8;;;-4.8;61.4
55858;BME280;41779;52.360;31.026;2023-12-07T02:41:26;1038.8;;;-4.8;61.4
55858;BME280;41779;52.360;31.026;2023-12-07T02:46:56;1038.8;;;-4.8;61.4
55858;BME280;41779;52.360;31.026;2023-12-07T02:51:44;1038.8;;;-4.8;61.3
55858;BME280;41779;52.360;31.026;2023-12-07T02:56:47;1038.8;;;-4.8;61.2
55858;BME280;41779;52.360;31.026;2023-12-07T03:01:54;1038.8;;;-4.8;61.1
55858;BME280;41779;52.360;31.026;2023-12-07T03:06:48;1038.9;;;-4.7;60.8
55858;BME280;41779;52.360;31.026;2023-12-07T03:12:00;1038.9;;;-4.6;60.7
55858;BME280;41779;52.360;31.026;2023-12-07T03:16:48;1038.9;;;-4.5;60.6
55858;BME280;41779;52.360;31.026;2023-12-07T03:21:42;1038.9;;;-4.5;60.5
55858;BME280;41779;52.360;31.026;2023-12-07T03:27:00;1039;;;-4.5;60.5
55858;BME280;41779;52.360;31.026;2023-12-07T03:32:06;1039;;;-4.5;60.5
55858;BME280;41779;52.360;31.026;2023-12-07T03:36:42;1039;;;-4.5;60.4
55858;BME280;41779;52.360;31.026;2023-12-07T03:42:00;1038.9;;;-4.5;60.2
55858;BME280;41779;52.360;31.026;2023-12-07T03:47:06;1038.9;;;-4.6;60
55858;BME280;41779;52.360;31.026;2023-12-07T03:51:37;1038.8;;;-4.6;59.9
55858;BME280;41779;52.360;31.026;2023-12-07T03:57:00;1038.8;;;-4.7;59.6
55858;BME280;41779;52.360;31.026;2023-12-07T04:02:06;1038.9;;;-4.7;59.8
55858;BME280;41779;52.360;31.026;2023-12-07T04:06:30;1038.9;;;-4.6;59.6
55858;BME280;41779;52.360;31.026;2023-12-07T04:11:32;1038.9;;;-4.6;59.3
55858;BME280;41779;52.360;31.026;2023-12-07T04:17:06;1038.9;;;-4.6;59.2
55858;BME280;41779;52.360;31.026;2023-12-07T04:22:06;1038.9;;;-4.7;59.2
55858;BME280;41779;52.360;31.026;2023-12-07T04:27:00;1038.8;;;-4.7;59.1
55858;BME280;41779;52.360;31.026;2023-12-07T04:31:50;1038.8;;;-4.8;59.1
55858;BME280;41779;52.360;31.026;2023-12-07T04:36:49;1038.8;;;-4.8;59.2
55858;BME280;41779;52.360;31.026;2023-12-07T04:41:50;1038.8;;;-4.9;59.1
55858;BME280;41779;52.360;31.026;2023-12-07T04:47:08;1038.9;;;-4.9;58.8
55858;BME280;41779;52.360;31.026;2023-12-07T04:51:30;1038.9;;;-4.9;58.8
55858;BME280;41779;52.360;31.026;2023-12-07T04:57:00;1039;;;-5;58.9
55858;BME280;41779;52.360;31.026;2023-12-07T05:01:54;1039;;;-5;58.9
55858;BME280;41779;52.360;31.026;2023-12-07T05:06:58;1039;;;-5;59.2
55858;BME280;41779;52.360;31.026;2023-12-07T05:11:26;1039.1;;;-4.9;59.4
55858;BME280;41779;52.360;31.026;2023-12-07T05:17:06;1039.1;;;-4.9;59.6
55858;BME280;41779;52.360;31.026;2023-12-07T05:21:38;1039;;;-4.8;59.8
55858;BME280;41779;52.360;31.026;2023-12-07T05:26:44;1039.1;;;-4.7;60
55858;BME280;41779;52.360;31.026;2023-12-07T05:31:52;1039.1;;;-4.7;60.1
55858;BME280;41779;52.360;31.026;2023-12-07T05:36:24;1039.2;;;-4.6;60.2
55858;BME280;41779;52.360;31.026;2023-12-07T05:42:00;1039.3;;;-4.5;60.3
55858;BME280;41779;52.360;31.026;2023-12-07T05:46:46;1039.2;;;-4.4;60.3
55858;BME280;41779;52.360;31.026;2023-12-07T05:51:24;1039.1;;;-4.3;60.3
55858;BME280;41779;52.360;31.026;2023-12-07T05:57:00;1039.2;;;-4.2;60.2
55858;BME280;41779;52.360;31.026;2023-12-07T06:02:08;1039.2;;;-4.2;60.2
55858;BME280;41779;52.360;31.026;2023-12-07T06:06:50;1039.2;;;-4.2;60.2
55858;BME280;41779;52.360;31.026;2023-12-07T06:12:08;1039.2;;;-4.1;60.4
55858;BME280;41779;52.360;31.026;2023-12-07T06:17:08;1039.2;;;-4.1;60.5
55858;BME280;41779;52.360;31.026;2023-12-07T06:22:02;1039.2;;;-4;60.4
55858;BME280;41779;52.360;31.026;2023-12-07T06:27:08;1039.3;;;-4;60.4
55858;BME280;41779;52.360;31.026;2023-12-07T06:32:08;1039.2;;;-3.9;60.5
55858;BME280;41779;52.360;31.026;2023-12-07T06:36:36;1039.2;;;-3.8;60.4
55858;BME280;41779;52.360;31.026;2023-12-07T06:42:08;1039.2;;;-3.7;60.4
55858;BME280;41779;52.360;31.026;2023-12-07T06:47:08;1039.2;;;-3.7;60.5
55858;BME280;41779;52.360;31.026;2023-12-07T06:51:42;1039.2;;;-3.6;60.6
55858;BME280;41779;52.360;31.026;2023-12-07T06:57:10;1039.1;;;-3.5;60.7
55858;BME280;41779;52.360;31.026;2023-12-07T07:01:26;1039;;;-3.5;60.8
55858;BME280;41779;52.360;31.026;2023-12-07T07:06:32;1039.1;;;-3.4;60.8
55858;BME280;41779;52.360;31.026;2023-12-07T07:12:10;1039.1;;;-3.3;60.7
55858;BME280;41779;52.360;31.026;2023-12-07T07:17:08;1039.1;;;-3.1;60.5
55858;BME280;41779;52.360;31.026;2023-12-07T07:21:54;1039;;;-3;60.4
55858;BME280;41779;52.360;31.026;2023-12-07T07:27:10;1039;;;-2.9;60.4
55858;BME280;41779;52.360;31.026;2023-12-07T07:32:10;1039;;;-2.9;60.6
55858;BME280;41779;52.360;31.026;2023-12-07T07:36:30;1039;;;-2.9;60.7
55858;BME280;41779;52.360;31.026;2023-12-07T07:42:06;1039;;;-2.8;60.8
55858;BME280;41779;52.360;31.026;2023-12-07T07:47:08;1039.1;;;-2.7;60.8
55858;BME280;41779;52.360;31.026;2023-12-07T07:51:50;1039.1;;;-2.6;60.8
55858;BME280;41779;52.360;31.026;2023-12-07T07:57:00;1039.1;;;-2.6;60.8
55858;BME280;41779;52.360;31.026;2023-12-07T08:02:08;1039.1;;;-2.5;60.9
55858;BME280;41779;52.360;31.026;2023-12-07T08:06:52;1039.1;;;-2.4;61
55858;BME280;41779;52.360;31.026;2023-12-07T08:12:11;1039.1;;;-2.3;60.9
55858;BME280;41779;52.360;31.026;2023-12-07T08:17:08;1039.1;;;-2.1;60.8
55858;BME280;41779;52.360;31.026;2023-12-07T08:21:50;1039.1;;;-2;60.8
55858;BME280;41779;52.360;31.026;2023-12-07T08:27:02;1039.1;;;-1.9;60.8
55858;BME280;41779;52.360;31.026;2023-12-07T08:32:08;1039.1;;;-1.8;60.9
55858;BME280;41779;52.360;31.026;2023-12-07T08:36:42;1039;;;-1.7;60.9
55858;BME280;41779;52.360;31.026;2023-12-07T08:42:08;1038.9;;;-1.7;60.6
55858;BME280;41779;52.360;31.026;2023-12-07T08:47:04;1038.9;;;-1.7;60.5
55858;BME280;41779;52.360;31.026;2023-12-07T08:51:32;1038.8;;;-1.6;60.4
55858;BME280;41779;52.360;31.026;2023-12-07T08:56:58;1038.8;;;-1.6;60.4
55858;BME280;41779;52.360;31.026;2023-12-07T09:02:02;1038.8;;;-1.5;60.4
55858;BME280;41779;52.360;31.026;2023-12-07T09:07:04;1038.7;;;-1.5;60.6
55858;BME280;41779;52.360;31.026;2023-12-07T09:12:06;1038.7;;;-1.4;60.6
55858;BME280;41779;52.360;31.026;2023-12-07T09:17:08;1038.7;;;-1.4;60.6
55858;BME280;41779;52.360;31.026;2023-12-07T09:22:06;1038.6;;;-1.4;60.6
55858;BME280;41779;52.360;31.026;2023-12-07T09:27:10;1038.7;;;-1.3;60.4
55858;BME280;41779;52.360;31.026;2023-12-07T09:31:56;1038.7;;;-1.4;60.3
55858;BME280;41779;52.360;31.026;2023-12-07T09:36:42;1038.6;;;-1.5;60.4
55858;BME280;41779;52.360;31.026;2023-12-07T09:42:06;1038.6;;;-1.5;60.6
55858;BME280;41779;52.360;31.026;2023-12-07T09:47:06;1038.6;;;-1.4;60.5
55858;BME280;41779;52.360;31.026;2023-12-07T09:51:44;1038.7;;;-1.4;60.5
55858;BME280;41779;52.360;31.026;2023-12-07T09:57:08;1038.7;;;-1.4;60.5
55858;BME280;41779;52.360;31.026;2023-12-07T10:02:08;1038.7;;;-1.4;60.4
55858;BME280;41779;52.360;31.026;2023-12-07T10:06:42;1038.6;;;-1.5;60.6
55858;BME280;41779;52.360;31.026;2023-12-07T10:12:06;1038.6;;;-1.6;60.9
55858;BME280;41779;52.360;31.026;2023-12-07T10:17:08;1038.7;;;-1.6;61
55858;BME280;41779;52.360;31.026;2023-12-07T10:21:38;1038.6;;;-1.6;61.2
55858;BME280;41779;52.360;31.026;2023-12-07T10:27:08;1038.6;;;-1.5;61
55858;BME280;41779;52.360;31.026;2023-12-07T10:32:10;1038.6;;;-1.5;60.9
55858;BME280;41779;52.360;31.026;2023-12-07T10:36:50;1038.5;;;-1.6;61
55858;BME280;41779;52.360;31.026;2023-12-07T10:42:09;1038.5;;;-1.5;61.3
55858;BME280;41779;52.360;31.026;2023-12-07T10:47:06;1038.4;;;-1.4;61
55858;BME280;41779;52.360;31.026;2023-12-07T10:51:45;1038.4;;;-1.4;60.9
55858;BME280;41779;52.360;31.026;2023-12-07T10:57:06;1038.4;;;-1.3;61.2
55858;BME280;41779;52.360;31.026;2023-12-07T11:01:56;1038.4;;;-1.2;61
55858;BME280;41779;52.360;31.026;2023-12-07T11:06:56;1038.3;;;-1.1;61
55858;BME280;41779;52.360;31.026;2023-12-07T11:12:04;1038.3;;;-1;60.6
55858;BME280;41779;52.360;31.026;2023-12-07T11:17:06;1038.3;;;-1;60.4
55858;BME280;41779;52.360;31.026;2023-12-07T11:21:48;1038.3;;;-1;60
55858;BME280;41779;52.360;31.026;2023-12-07T11:27:06;1038.2;;;-1;60.1
55858;BME280;41779;52.360;31.026;2023-12-07T11:32:06;1038.2;;;-1;60.1
55858;BME280;41779;52.360;31.026;2023-12-07T11:36:56;1038.2;;;-1;60
55858;BME280;41779;52.360;31.026;2023-12-07T11:42:06;1038.1;;;-1;59.8
55858;BME280;41779;52.360;31.026;2023-12-07T11:47:06;1038.1;;;-1;59.9
55858;BME280;41779;52.360;31.026;2023-12-07T11:51:30;1038;;;-1;59.8
55858;BME280;41779;52.360;31.026;2023-12-07T11:57:08;1038;;;-1;59.6
55858;BME280;41779;52.360;31.026;2023-12-07T12:02:09;1038;;;-1;59.7
55858;BME280;41779;52.360;31.026;2023-12-07T12:06:56;1038;;;-1;59.8
55858;BME280;41779;52.360;31.026;2023-12-07T12:12:08;1038.1;;;-1;59.8
55858;BME280;41779;52.360;31.026;2023-12-07T12:17:08;1038.1;;;-0.9;59.8
55858;BME280;41779;52.360;31.026;2023-12-07T12:21:33;1038.1;;;-0.9;59.5
55858;BME280;41779;52.360;31.026;2023-12-07T12:27:02;1038.1;;;-0.8;59.7
55858;BME280;41779;52.360;31.026;2023-12-07T12:32:08;1038.1;;;-0.8;59.5
55858;BME280;41779;52.360;31.026;2023-12-07T12:36:56;1038.1;;;-0.8;59.2
55858;BME280;41779;52.360;31.026;2023-12-07T12:41:53;1038.1;;;-0.9;59.1
55858;BME280;41779;52.360;31.026;2023-12-07T12:47:08;1038.1;;;-1.1;59.3
55858;BME280;41779;52.360;31.026;2023-12-07T12:51:25;1038.1;;;-1.1;59.4
55858;BME280;41779;52.360;31.026;2023-12-07T12:57:06;1038.1;;;-1.3;59.7
55858;BME280;41779;52.360;31.026;2023-12-07T13:02:06;1038.2;;;-1.2;59.8
55858;BME280;41779;52.360;31.026;2023-12-07T13:06:54;1038.2;;;-1.2;59.8
55858;BME280;41779;52.360;31.026;2023-12-07T13:12:06;1038.2;;;-1.2;59.9
55858;BME280;41779;52.360;31.026;2023-12-07T13:17:00;1038.2;;;-1.2;60
55858;BME280;41779;52.360;31.026;2023-12-07T13:21:48;1038.2;;;-1.1;59.8
55858;BME280;41779;52.360;31.026;2023-12-07T13:26:56;1038.2;;;-1.1;59.9
55858;BME280;41779;52.360;31.026;2023-12-07T13:32:08;1038.1;;;-1.1;59.8
55858;BME280;41779;52.360;31.026;2023-12-07T13:36:28;1038;;;-1;59.6
55858;BME280;41779;52.360;31.026;2023-12-07T13:42:04;1038;;;-1;59.6
55858;BME280;41779;52.360;31.026;2023-12-07T13:46:57;1038;;;-1;59.6
55858;BME280;41779;52.360;31.026;2023-12-07T13:51:42;1037.9;;;-0.9;59.6
55858;BME280;41779;52.360;31.026;2023-12-07T13:57:06;1038;;;-1;59.6
55858;BME280;41779;52.360;31.026;2023-12-07T14:02:06;1038;;;-1;59.9
55858;BME280;41779;52.360;31.026;2023-12-07T14:06:48;1038;;;-1;60
55858;BME280;41779;52.360;31.026;2023-12-07T14:11:24;1038;;;-1.1;60.2
55858;BME280;41779;52.360;31.026;2023-12-07T14:17:06;1038.1;;;-1.1;60.2
55858;BME280;41779;52.360;31.026;2023-12-07T14:21:48;1038;;;-1.1;60.4
55858;BME280;41779;52.360;31.026;2023-12-07T14:27:06;1038;;;-1.1;60.3
55858;BME280;41779;52.360;31.026;2023-12-07T14:32:06;1037.9;;;-1.1;60.4
55858;BME280;41779;52.360;31.026;2023-12-07T14:36:48;1037.9;;;-1.2;60.5
55858;BME280;41779;52.360;31.026;2023-12-07T14:41:50;1038;;;-1.2;60.6
55858;BME280;41779;52.360;31.026;2023-12-07T14:46:30;1038;;;-1.2;60.5
55858;BME280;41779;52.360;31.026;2023-12-07T14:51:48;1038;;;-1.2;60.5
55858;BME280;41779;52.360;31.026;2023-12-07T14:57:06;1037.9;;;-1.2;60.6
55858;BME280;41779;52.360;31.026;2023-12-07T15:01:50;1037.9;;;-1.2;60.7
55858;BME280;41779;52.360;31.026;2023-12-07T15:06:50;1037.9;;;-1.2;60.7
55858;BME280;41779;52.360;31.026;2023-12-07T15:12:00;1037.8;;;-1.2;60.8
55858;BME280;41779;52.360;31.026;2023-12-07T15:16:54;1037.8;;;-1.2;61
55858;BME280;41779;52.360;31.026;2023-12-07T15:21:48;1037.8;;;-1.3;61.1
55858;BME280;41779;52.360;31.026;2023-12-07T15:27:00;1037.8;;;-1.2;61.2
55858;BME280;41779;52.360;31.026;2023-12-07T15:31:52;1037.9;;;-1.3;61.5
55858;BME280;41779;52.360;31.026;2023-12-07T15:36:50;1037.8;;;-1.3;61.7
55858;BME280;41779;52.360;31.026;2023-12-07T15:42:02;1037.8;;;-1.2;61.8
55858;BME280;41779;52.360;31.026;2023-12-07T15:46:56;1037.9;;;-1.2;61.6
55858;BME280;41779;52.360;31.026;2023-12-07T15:51:52;1037.8;;;-1.3;61.9
55858;BME280;41779;52.360;31.026;2023-12-07T15:57:02;1037.9;;;-1.2;61.8
55858;BME280;41779;52.360;31.026;2023-12-07T16:01:56;1037.9;;;-1.2;61.7
55858;BME280;41779;52.360;31.026;2023-12-07T16:06:52;1037.9;;;-1.1;61.6
55858;BME280;41779;52.360;31.026;2023-12-07T16:11:26;1037.9;;;-1.2;61.7
55858;BME280;41779;52.360;31.026;2023-12-07T16:16:46;1037.9;;;-1.2;61.8
55858;BME280;41779;52.360;31.026;2023-12-07T16:21:42;1037.9;;;-1.2;61.9
55858;BME280;41779;52.360;31.026;2023-12-07T16:26:36;1037.8;;;-1.2;62
55858;BME280;41779;52.360;31.026;2023-12-07T16:31:58;1037.8;;;-1.2;62
55858;BME280;41779;52.360;31.026;2023-12-07T16:36:44;1037.9;;;-1.2;62.2
55858;BME280;41779;52.360;31.026;2023-12-07T16:42:02;1037.9;;;-1.2;62.2
55858;BME280;41779;52.360;31.026;2023-12-07T17:01:58;1037.8;;;-1;61.9
55858;BME280;41779;52.360;31.026;2023-12-07T17:06:46;1037.7;;;-1.1;62.2
55858;BME280;41779;52.360;31.026;2023-12-07T17:12:08;1037.7;;;-1.1;62.1
55858;BME280;41779;52.360;31.026;2023-12-07T17:16:59;1037.8;;;-1.1;62.1
55858;BME280;41779;52.360;31.026;2023-12-07T17:21:24;1037.8;;;-1.1;62
55858;BME280;41779;52.360;31.026;2023-12-07T17:27:05;1037.7;;;-1.1;62
55858;BME280;41779;52.360;31.026;2023-12-07T17:31:58;1037.7;;;-1;61.8
55858;BME280;41779;52.360;31.026;2023-12-07T17:36:50;1037.8;;;-0.9;61.7
55858;BME280;41779;52.360;31.026;2023-12-07T17:42:08;1037.8;;;-0.9;61.5
55858;BME280;41779;52.360;31.026;2023-12-07T17:46:56;1037.8;;;-0.9;61.5
55858;BME280;41779;52.360;31.026;2023-12-07T17:51:44;1037.9;;;-0.9;61.5
55858;BME280;41779;52.360;31.026;2023-12-07T17:56:56;1037.9;;;-0.9;61.4
55858;BME280;41779;52.360;31.026;2023-12-07T18:01:58;1037.9;;;-0.9;61.5
55858;BME280;41779;52.360;31.026;2023-12-07T18:06:44;1037.9;;;-0.9;61.3
55858;BME280;41779;52.360;31.026;2023-12-07T18:11:54;1037.8;;;-0.9;61.2
55858;BME280;41779;52.360;31.026;2023-12-07T18:16:58;1037.8;;;-0.9;61
55858;BME280;41779;52.360;31.026;2023-12-07T18:21:50;1037.8;;;-0.9;61.1
55858;BME280;41779;52.360;31.026;2023-12-07T18:27:02;1037.8;;;-1;61.1
55858;BME280;41779;52.360;31.026;2023-12-07T18:31:56;1037.8;;;-1;61
55858;BME280;41779;52.360;31.026;2023-12-07T18:36:38;1037.8;;;-1;61.1
55858;BME280;41779;52.360;31.026;2023-12-07T18:42:04;1037.7;;;-1;61
55858;BME280;41779;52.360;31.026;2023-12-07T18:46:56;1037.7;;;-1;61.1
55858;BME280;41779;52.360;31.026;2023-12-07T18:51:26;1037.7;;;-1;61.1
55858;BME280;41779;52.360;31.026;2023-12-07T18:56:52;1037.6;;;-1;61.2
55858;BME280;41779;52.360;31.026;2023-12-07T19:01:56;1037.6;;;-1;61.2
55858;BME280;41779;52.360;31.026;2023-12-07T19:06:44;1037.6;;;-1;61.2
55858;BME280;41779;52.360;31.026;2023-12-07T19:12:04;1037.5;;;-0.9;61
55858;BME280;41779;52.360;31.026;2023-12-07T19:16:56;1037.5;;;-0.9;61.2
55858;BME280;41779;52.360;31.026;2023-12-07T19:21:24;1037.5;;;-0.9;61.1
55858;BME280;41779;52.360;31.026;2023-12-07T19:26:42;1037.5;;;-0.9;61.2
55858;BME280;41779;52.360;31.026;2023-12-07T19:31:58;1037.5;;;-0.9;61.2
55858;BME280;41779;52.360;31.026;2023-12-07T19:37:02;1037.5;;;-1;61.4
55858;BME280;41779;52.360;31.026;2023-12-07T19:42:02;1037.5;;;-1;61.5
55858;BME280;41779;52.360;31.026;2023-12-07T19:46:56;1037.5;;;-1.1;61.7
55858;BME280;41779;52.360;31.026;2023-12-07T19:51:26;1037.5;;;-1.1;62
55858;BME280;41779;52.360;31.026;2023-12-07T19:56:44;1037.5;;;-1.1;62.2
55858;BME280;41779;52.360;31.026;2023-12-07T20:01:56;1037.5;;;-1.2;62.3
55858;BME280;41779;52.360;31.026;2023-12-07T20:06:24;1037.5;;;-1.1;62.3
55858;BME280;41779;52.360;31.026;2023-12-07T20:11:28;1037.5;;;-1;62
55858;BME280;41779;52.360;31.026;2023-12-07T20:16:56;1037.5;;;-1.1;62
55858;BME280;41779;52.360;31.026;2023-12-07T20:21:50;1037.5;;;-1;62
55858;BME280;41779;52.360;31.026;2023-12-07T20:27:02;1037.5;;;-1;61.7
55858;BME280;41779;52.360;31.026;2023-12-07T20:31:28;1037.5;;;-1;61.7
55858;BME280;41779;52.360;31.026;2023-12-07T20:36:52;1037.5;;;-1;61.9
55858;BME280;41779;52.360;31.026;2023-12-07T20:42:02;1037.6;;;-1;61.8
55858;BME280;41779;52.360;31.026;2023-12-07T20:46:45;1037.5;;;-1;61.8
55858;BME280;41779;52.360;31.026;2023-12-07T20:51:32;1037.5;;;-1;61.8
55858;BME280;41779;52.360;31.026;2023-12-07T20:57:02;1037.5;;;-1;61.8
55858;BME280;41779;52.360;31.026;2023-12-07T21:01:58;1037.5;;;-1.1;61.9
55858;BME280;41779;52.360;31.026;2023-12-07T21:06:44;1037.5;;;-1;61.9
55858;BME280;41779;52.360;31.026;2023-12-07T21:11:48;1037.4;;;-1;61.8
55858;BME280;41779;52.360;31.026;2023-12-07T21:16:39;1037.4;;;-1;61.8
55858;BME280;41779;52.360;31.026;2023-12-07T21:21:44;1037.4;;;-1;61.7
55858;BME280;41779;52.360;31.026;2023-12-07T21:27:04;1037.5;;;-0.9;61.7
55858;BME280;41779;52.360;31.026;2023-12-07T21:32:10;1037.5;;;-0.9;61.7
55858;BME280;41779;52.360;31.026;2023-12-07T21:36:26;1037.4;;;-0.9;61.7
55858;BME280;41779;52.360;31.026;2023-12-07T21:42:03;1037.4;;;-0.9;61.8
55858;BME280;41779;52.360;31.026;2023-12-07T21:46:26;1037.4;;;-0.9;61.6
55858;BME280;41779;52.360;31.026;2023-12-07T21:52:03;1037.4;;;-0.9;61.6
55858;BME280;41779;52.360;31.026;2023-12-07T21:56:52;1037.3;;;-0.9;61.6
55858;BME280;41779;52.360;31.026;2023-12-07T22:01:40;1037.3;;;-0.9;61.7
55858;BME280;41779;52.360;31.026;2023-12-07T22:06:44;1037.3;;;-0.9;61.6
55858;BME280;41779;52.360;31.026;2023-12-07T22:11:44;1037.3;;;-0.9;61.5
55858;BME280;41779;52.360;31.026;2023-12-07T22:16:56;1037.2;;;-0.9;61.6
55858;BME280;41779;52.360;31.026;2023-12-07T22:21:24;1037.2;;;-1;61.5
55858;BME280;41779;52.360;31.026;2023-12-07T22:26:26;1037.2;;;-1;61.5
55858;BME280;41779;52.360;31.026;2023-12-07T22:31:38;1037.2;;;-0.9;61.5
55858;BME280;41779;52.360;31.026;2023-12-07T22:37:04;1037.1;;;-1;61.5
55858;BME280;41779;52.360;31.026;2023-12-07T22:41:26;1037.1;;;-1;61.6
55858;BME280;41779;52.360;31.026;2023-12-07T22:46:52;1037.1;;;-1;61.6
55858;BME280;41779;52.360;31.026;2023-12-07T22:52:04;1037.1;;;-1;61.7
55858;BME280;41779;52.360;31.026;2023-12-07T22:57:04;1037;;;-1;61.7
55858;BME280;41779;52.360;31.026;2023-12-07T23:01:40;1037;;;-1.1;61.8
55858;BME280;41779;52.360;31.026;2023-12-07T23:06:50;1037;;;-1.1;61.9
55858;BME280;41779;52.360;31.026;2023-12-07T23:12:08;1037;;;-1.1;61.9
55858;BME280;41779;52.360;31.026;2023-12-07T23:17:08;1036.9;;;-1.2;62
55858;BME280;41779;52.360;31.026;2023-12-07T23:22:06;1036.9;;;-1.2;62.2
55858;BME280;41779;52.360;31.026;2023-12-07T23:27:02;1036.9;;;-1.2;62.5
55858;BME280;41779;52.360;31.026;2023-12-07T23:32:09;1037;;;-1.1;62.2
55858;BME280;41779;52.360;31.026;2023-12-07T23:36:24;1036.9;;;-1.1;62.2
55858;BME280;41779;52.360;31.026;2023-12-07T23:41:36;1036.9;;;-1.1;62.3
55858;BME280;41779;52.360;31.026;2023-12-07T23:47:08;1036.9;;;-1.1;62.3
55858;BME280;41779;52.360;31.026;2023-12-07T23:51:24;1036.8;;;-1.1;62.2
55858;BME280;41779;52.360;31.026;2023-12-07T23:57:02;1036.8;;;-1.1;62.3
